createdAt,value
2017-10-19T00:00:55.641Z,9.99
2017-10-19T00:01:55.685Z,10.09
2017-10-19T00:02:55.670Z,10.01
2017-10-19T00:03:55.716Z,10.04
2017-10-19T00:04:55.763Z,10.15
2017-10-19T00:05:55.812Z,10.14
2017-10-19T00:06:55.924Z,10.19
2017-10-19T00:07:55.904Z,10.17
2017-10-19T00:08:55.950Z,10.17
2017-10-19T00:09:55.995Z,10.28
2017-10-19T00:10:56.043Z,10.28
2017-10-19T00:11:56.151Z,10.25
2017-10-19T00:12:56.135Z,10.34
2017-10-19T00:13:56.181Z,10.44
2017-10-19T00:14:56.228Z,10.37
2017-10-19T00:15:56.274Z,10.40
2017-10-19T00:16:56.402Z,10.36
2017-10-19T00:17:56.365Z,10.33
2017-10-19T00:18:56.412Z,10.25
2017-10-19T00:19:56.458Z,10.24
2017-10-19T00:20:56.505Z,10.28
2017-10-19T00:21:56.618Z,10.28
2017-10-19T00:22:56.601Z,10.21
2017-10-19T00:23:56.644Z,10.12
2017-10-19T00:24:56.691Z,10.15
2017-10-19T00:25:56.738Z,10.18
2017-10-19T00:26:56.848Z,10.10
2017-10-19T00:27:56.896Z,10.07
2017-10-19T00:28:56.878Z,10.07
2017-10-19T00:29:56.919Z,10.15
2017-10-19T00:30:56.969Z,10.06
2017-10-19T00:31:57.016Z,10.01
2017-10-19T00:32:57.126Z,10.10
2017-10-19T00:33:57.107Z,10.06
2017-10-19T00:34:57.163Z,9.97
2017-10-19T00:35:57.202Z,9.99
2017-10-19T00:36:57.247Z,9.88
2017-10-19T00:37:57.362Z,9.89
2017-10-19T00:38:57.339Z,9.93
2017-10-19T00:39:57.386Z,9.83
2017-10-19T00:40:57.433Z,9.88
2017-10-19T00:41:57.480Z,9.83
2017-10-19T00:42:57.590Z,9.83
2017-10-19T00:43:57.574Z,9.79
2017-10-19T00:44:57.620Z,9.91
2017-10-19T00:45:57.664Z,9.86
2017-10-19T00:46:57.717Z,9.86
2017-10-19T00:47:57.836Z,9.85
2017-10-19T00:48:57.804Z,9.82
2017-10-19T00:49:57.851Z,9.82
2017-10-19T00:50:57.895Z,9.78
2017-10-19T00:51:57.941Z,9.75
2017-10-19T00:52:58.062Z,9.75
2017-10-19T00:53:58.035Z,9.75
2017-10-19T00:54:58.086Z,9.71
2017-10-19T00:55:58.128Z,9.70
2017-10-19T00:56:58.174Z,9.63
2017-10-19T00:57:58.298Z,9.66
2017-10-19T00:58:58.266Z,9.56
2017-10-19T00:59:58.309Z,9.60
2017-10-19T01:00:58.359Z,9.50
2017-10-19T01:01:58.405Z,9.49
2017-10-19T01:02:58.534Z,9.48
2017-10-19T01:03:58.496Z,9.50
2017-10-19T01:04:58.545Z,9.39
2017-10-19T01:05:58.590Z,9.40
2017-10-19T01:06:58.635Z,9.32
2017-10-19T01:07:58.746Z,9.35
2017-10-19T01:08:58.791Z,9.34
2017-10-19T01:09:58.774Z,9.32
2017-10-19T01:10:58.822Z,9.30
2017-10-19T01:11:58.867Z,9.32
2017-10-19T01:12:58.913Z,9.35
2017-10-19T01:13:59.023Z,9.24
2017-10-19T01:14:59.007Z,9.25
2017-10-19T01:15:59.052Z,9.30
2017-10-19T01:16:59.101Z,9.30
2017-10-19T01:17:59.144Z,9.39
2017-10-19T01:18:59.255Z,9.32
2017-10-19T01:19:59.235Z,9.46
2017-10-19T01:20:59.282Z,9.49
2017-10-19T01:21:59.328Z,9.43
2017-10-19T01:22:59.375Z,9.38
2017-10-19T01:23:59.501Z,9.31
2017-10-19T01:24:59.465Z,9.38
2017-10-19T01:25:59.513Z,9.34
2017-10-19T01:26:59.559Z,9.28
2017-10-19T01:27:59.603Z,9.28
2017-10-19T01:28:59.732Z,9.27
2017-10-19T01:29:59.697Z,9.23
2017-10-19T01:30:59.746Z,9.21
2017-10-19T01:31:59.789Z,9.27
2017-10-19T01:32:59.834Z,9.18
2017-10-19T01:33:59.963Z,9.15
2017-10-19T01:34:59.923Z,9.20
2017-10-19T01:35:59.972Z,9.01
2017-10-19T01:37:00.035Z,9.09
2017-10-19T01:38:00.065Z,9.06
2017-10-19T01:39:00.177Z,9.12
2017-10-19T01:40:00.155Z,9.06
2017-10-19T01:41:00.201Z,9.05
2017-10-19T01:42:01.028Z,9.06
2017-10-19T01:43:00.290Z,9.01
2017-10-19T01:44:00.403Z,8.96
2017-10-19T01:45:00.457Z,8.91
2017-10-19T01:46:00.432Z,8.90
2017-10-19T01:47:00.477Z,8.88
2017-10-19T01:48:00.524Z,8.94
2017-10-19T01:49:00.570Z,8.91
2017-10-19T01:50:00.680Z,8.87
2017-10-19T01:51:00.660Z,8.84
2017-10-19T01:52:00.708Z,8.81
2017-10-19T01:53:00.758Z,8.84
2017-10-19T01:54:00.798Z,8.86
2017-10-19T01:55:00.908Z,8.84
2017-10-19T01:56:00.892Z,8.81
2017-10-19T01:57:00.935Z,8.87
2017-10-19T01:58:00.982Z,9.01
2017-10-19T01:59:01.028Z,9.02
2017-10-19T02:00:01.181Z,9.15
2017-10-19T02:01:01.122Z,9.23
2017-10-19T02:02:01.161Z,9.23
2017-10-19T02:03:01.211Z,9.38
2017-10-19T02:04:01.254Z,9.42
2017-10-19T02:05:01.367Z,9.58
2017-10-19T02:06:01.347Z,9.64
2017-10-19T02:07:01.394Z,9.70
2017-10-19T02:08:01.441Z,9.73
2017-10-19T02:09:01.488Z,9.82
2017-10-19T02:10:01.619Z,9.79
2017-10-19T02:11:01.579Z,9.78
2017-10-19T02:12:01.626Z,9.79
2017-10-19T02:13:01.669Z,9.76
2017-10-19T02:14:01.715Z,9.71
2017-10-19T02:15:01.859Z,9.78
2017-10-19T02:16:01.827Z,9.88
2017-10-19T02:17:01.853Z,9.86
2017-10-19T02:18:01.899Z,9.91
2017-10-19T02:19:01.944Z,9.82
2017-10-19T02:20:02.056Z,9.83
2017-10-19T02:21:02.101Z,9.76
2017-10-19T02:22:02.084Z,9.70
2017-10-19T02:23:02.128Z,9.66
2017-10-19T02:24:02.180Z,9.66
2017-10-19T02:25:02.291Z,9.64
2017-10-19T02:26:02.334Z,9.58
2017-10-19T02:27:02.315Z,9.52
2017-10-19T02:28:02.359Z,9.52
2017-10-19T02:29:02.423Z,9.46
2017-10-19T02:30:02.449Z,9.46
2017-10-19T02:31:02.570Z,9.49
2017-10-19T02:32:02.552Z,9.50
2017-10-19T02:33:02.598Z,9.46
2017-10-19T02:34:02.636Z,9.49
2017-10-19T02:35:02.681Z,9.42
2017-10-19T02:36:02.793Z,9.50
2017-10-19T02:37:02.775Z,9.48
2017-10-19T02:38:02.820Z,9.50
2017-10-19T02:39:02.864Z,9.52
2017-10-19T02:40:02.914Z,9.56
2017-10-19T02:41:03.021Z,9.45
2017-10-19T02:42:03.106Z,9.39
2017-10-19T02:43:03.050Z,9.39
2017-10-19T02:44:03.095Z,9.48
2017-10-19T02:45:03.141Z,9.48
2017-10-19T02:46:03.252Z,9.46
2017-10-19T02:47:03.235Z,9.46
2017-10-19T02:48:03.280Z,9.46
2017-10-19T02:49:03.326Z,9.46
2017-10-19T02:50:03.372Z,9.49
2017-10-19T02:51:03.489Z,9.48
2017-10-19T02:52:03.480Z,9.52
2017-10-19T02:53:03.512Z,9.46
2017-10-19T02:54:03.556Z,9.50
2017-10-19T02:55:03.604Z,9.49
2017-10-19T02:56:03.714Z,9.50
2017-10-19T02:57:03.699Z,9.42
2017-10-19T02:58:03.741Z,9.35
2017-10-19T02:59:03.787Z,9.34
2017-10-19T03:00:03.834Z,9.21
2017-10-19T03:01:03.944Z,9.24
2017-10-19T03:02:03.924Z,9.21
2017-10-19T03:03:03.974Z,9.24
2017-10-19T03:04:04.026Z,9.20
2017-10-19T03:05:04.070Z,9.23
2017-10-19T03:06:04.171Z,9.20
2017-10-19T03:07:04.155Z,9.23
2017-10-19T03:08:04.201Z,9.20
2017-10-19T03:09:04.248Z,9.18
2017-10-19T03:10:04.293Z,9.13
2017-10-19T03:11:04.418Z,9.09
2017-10-19T03:12:04.382Z,8.97
2017-10-19T03:13:04.430Z,8.93
2017-10-19T03:14:04.476Z,8.91
2017-10-19T03:15:04.523Z,8.87
2017-10-19T03:16:04.637Z,8.86
2017-10-19T03:17:04.614Z,8.81
2017-10-19T03:18:04.663Z,8.84
2017-10-19T03:19:04.705Z,8.86
2017-10-19T03:20:04.754Z,8.81
2017-10-19T03:21:04.883Z,8.73
2017-10-19T03:22:04.844Z,8.73
2017-10-19T03:23:04.889Z,8.71
2017-10-19T03:24:04.936Z,8.63
2017-10-19T03:25:04.982Z,8.66
2017-10-19T03:26:05.105Z,8.63
2017-10-19T03:27:05.137Z,8.58
2017-10-19T03:28:05.119Z,8.73
2017-10-19T03:29:05.166Z,8.71
2017-10-19T03:30:05.210Z,8.65
2017-10-19T03:31:05.338Z,8.63
2017-10-19T03:32:05.374Z,8.66
2017-10-19T03:33:05.353Z,8.63
2017-10-19T03:34:05.394Z,8.65
2017-10-19T03:35:05.439Z,8.55
2017-10-19T03:36:05.485Z,8.57
2017-10-19T03:37:05.615Z,8.57
2017-10-19T03:38:05.581Z,8.45
2017-10-19T03:39:05.622Z,8.53
2017-10-19T03:40:05.669Z,8.50
2017-10-19T03:41:05.725Z,8.48
2017-10-19T03:42:05.837Z,8.51
2017-10-19T03:43:05.803Z,8.53
2017-10-19T03:44:05.855Z,8.51
2017-10-19T03:45:05.899Z,8.54
2017-10-19T03:46:05.941Z,8.48
2017-10-19T03:47:06.052Z,8.57
2017-10-19T03:48:06.097Z,8.60
2017-10-19T03:49:06.085Z,8.53
2017-10-19T03:50:06.125Z,8.58
2017-10-19T03:51:06.170Z,8.58
2017-10-19T03:52:06.280Z,8.69
2017-10-19T03:53:06.336Z,8.86
2017-10-19T03:54:06.307Z,8.87
2017-10-19T03:55:06.353Z,9.02
2017-10-19T03:56:06.397Z,9.05
2017-10-19T03:57:06.450Z,9.09
2017-10-19T03:58:06.554Z,9.10
2017-10-19T03:59:06.535Z,9.21
2017-10-19T04:00:06.581Z,9.43
2017-10-19T04:01:06.630Z,9.49
2017-10-19T04:02:06.672Z,9.48
2017-10-19T04:03:06.780Z,9.50
2017-10-19T04:04:06.770Z,9.48
2017-10-19T04:05:06.810Z,9.50
2017-10-19T04:06:06.853Z,9.34
2017-10-19T04:07:06.900Z,9.40
2017-10-19T04:08:07.011Z,9.34
2017-10-19T04:09:06.996Z,9.21
2017-10-19T04:10:07.045Z,9.20
2017-10-19T04:11:07.084Z,9.35
2017-10-19T04:12:07.128Z,9.18
2017-10-19T04:13:07.238Z,9.21
2017-10-19T04:14:07.221Z,9.21
2017-10-19T04:15:07.266Z,9.24
2017-10-19T04:16:07.312Z,9.20
2017-10-19T04:17:07.364Z,9.24
2017-10-19T04:18:07.466Z,9.23
2017-10-19T04:19:07.450Z,9.25
2017-10-19T04:20:07.495Z,9.18
2017-10-19T04:21:07.543Z,9.28
2017-10-19T04:22:07.584Z,9.25
2017-10-19T04:23:07.697Z,9.21
2017-10-19T04:24:07.698Z,9.10
2017-10-19T04:25:07.727Z,9.13
2017-10-19T04:26:07.772Z,9.04
2017-10-19T04:27:07.815Z,9.05
2017-10-19T04:28:07.925Z,9.05
2017-10-19T04:29:07.912Z,9.01
2017-10-19T04:30:07.955Z,8.90
2017-10-19T04:31:07.998Z,8.88
2017-10-19T04:32:08.046Z,8.93
2017-10-19T04:33:08.155Z,8.93
2017-10-19T04:34:08.136Z,8.88
2017-10-19T04:35:08.183Z,8.84
2017-10-19T04:36:08.235Z,8.84
2017-10-19T04:37:08.272Z,8.81
2017-10-19T04:38:08.382Z,8.81
2017-10-19T04:39:08.367Z,8.73
2017-10-19T04:40:08.414Z,8.73
2017-10-19T04:41:08.455Z,8.75
2017-10-19T04:42:08.504Z,8.73
2017-10-19T04:43:08.628Z,8.68
2017-10-19T04:44:08.595Z,8.65
2017-10-19T04:45:08.641Z,8.68
2017-10-19T04:46:08.689Z,8.55
2017-10-19T04:47:08.733Z,8.53
2017-10-19T04:48:08.840Z,8.45
2017-10-19T04:49:08.890Z,8.40
2017-10-19T04:50:08.870Z,8.44
2017-10-19T04:51:08.914Z,8.48
2017-10-19T04:52:08.958Z,8.28
2017-10-19T04:53:09.008Z,8.36
2017-10-19T04:54:09.115Z,8.35
2017-10-19T04:55:09.101Z,8.30
2017-10-19T04:56:09.147Z,8.32
2017-10-19T04:57:09.189Z,8.22
2017-10-19T04:58:09.236Z,8.25
2017-10-19T04:59:09.343Z,8.14
2017-10-19T05:00:09.326Z,8.14
2017-10-19T05:01:09.368Z,8.14
2017-10-19T05:02:09.419Z,8.26
2017-10-19T05:03:09.463Z,8.22
2017-10-19T05:04:09.588Z,8.12
2017-10-19T05:05:09.555Z,8.25
2017-10-19T05:06:09.596Z,8.26
2017-10-19T05:07:09.644Z,8.25
2017-10-19T05:08:09.686Z,8.29
2017-10-19T05:09:09.799Z,8.22
2017-10-19T05:10:09.782Z,8.18
2017-10-19T05:11:09.827Z,8.15
2017-10-19T05:12:09.880Z,8.14
2017-10-19T05:13:09.917Z,8.11
2017-10-19T05:14:10.028Z,8.18
2017-10-19T05:15:10.008Z,8.20
2017-10-19T05:16:10.054Z,8.20
2017-10-19T05:17:10.098Z,8.11
2017-10-19T05:18:10.148Z,8.20
2017-10-19T05:19:10.256Z,8.15
2017-10-19T05:20:10.236Z,8.12
2017-10-19T05:21:10.282Z,8.07
2017-10-19T05:22:10.324Z,8.14
2017-10-19T05:23:10.371Z,8.18
2017-10-19T05:24:10.496Z,8.21
2017-10-19T05:25:10.462Z,8.25
2017-10-19T05:26:10.511Z,8.30
2017-10-19T05:27:10.555Z,8.28
2017-10-19T05:28:10.606Z,8.25
2017-10-19T05:29:10.728Z,8.29
2017-10-19T05:30:10.689Z,8.26
2017-10-19T05:31:10.733Z,8.28
2017-10-19T05:32:10.780Z,8.11
2017-10-19T05:33:10.826Z,8.22
2017-10-19T05:34:10.953Z,8.28
2017-10-19T05:35:11.572Z,8.25
2017-10-19T05:36:10.961Z,8.25
2017-10-19T05:37:11.013Z,8.26
2017-10-19T05:38:11.052Z,8.28
2017-10-19T05:39:11.634Z,8.25
2017-10-19T05:40:11.255Z,8.14
2017-10-19T05:41:11.192Z,8.28
2017-10-19T05:42:11.239Z,8.26
2017-10-19T05:43:11.281Z,8.32
2017-10-19T05:44:11.359Z,8.22
2017-10-19T05:45:11.434Z,8.28
2017-10-19T05:46:11.415Z,8.21
2017-10-19T05:47:11.462Z,8.22
2017-10-19T05:48:11.506Z,8.22
2017-10-19T05:49:11.553Z,8.25
2017-10-19T05:50:11.662Z,8.15
2017-10-19T05:51:11.643Z,8.10
2017-10-19T05:52:11.695Z,8.07
2017-10-19T05:53:11.734Z,8.00
2017-10-19T05:54:11.778Z,7.94
2017-10-19T05:55:11.901Z,7.96
2017-10-19T05:56:11.871Z,8.11
2017-10-19T05:57:11.915Z,8.14
2017-10-19T05:58:11.959Z,8.07
2017-10-19T05:59:12.012Z,8.11
2017-10-19T06:00:12.119Z,8.30
2017-10-19T06:01:12.160Z,8.22
2017-10-19T06:02:12.138Z,8.26
2017-10-19T06:03:12.187Z,8.26
2017-10-19T06:04:12.231Z,8.26
2017-10-19T06:05:12.279Z,8.32
2017-10-19T06:06:12.388Z,8.36
2017-10-19T06:07:12.371Z,8.40
2017-10-19T06:08:12.416Z,8.39
2017-10-19T06:09:12.460Z,8.47
2017-10-19T06:10:12.501Z,8.45
2017-10-19T06:11:12.614Z,8.44
2017-10-19T06:12:12.594Z,8.51
2017-10-19T06:13:12.641Z,8.45
2017-10-19T06:14:12.685Z,8.47
2017-10-19T06:15:12.734Z,8.53
2017-10-19T06:16:12.847Z,8.47
2017-10-19T06:17:12.822Z,8.54
2017-10-19T06:18:12.866Z,8.57
2017-10-19T06:19:12.913Z,8.62
2017-10-19T06:20:12.960Z,8.53
2017-10-19T06:21:13.067Z,8.58
2017-10-19T06:22:13.048Z,8.54
2017-10-19T06:23:13.097Z,8.54
2017-10-19T06:24:13.141Z,8.58
2017-10-19T06:25:13.185Z,8.62
2017-10-19T06:26:13.296Z,8.69
2017-10-19T06:27:13.281Z,8.66
2017-10-19T06:28:13.322Z,8.79
2017-10-19T06:29:13.369Z,8.76
2017-10-19T06:30:13.415Z,8.73
2017-10-19T06:31:13.529Z,8.81
2017-10-19T06:32:13.501Z,8.83
2017-10-19T06:33:13.551Z,8.91
2017-10-19T06:34:13.595Z,8.93
2017-10-19T06:35:13.641Z,8.97
2017-10-19T06:36:13.757Z,9.09
2017-10-19T06:37:13.735Z,9.18
2017-10-19T06:38:13.779Z,9.24
2017-10-19T06:39:13.825Z,9.39
2017-10-19T06:40:13.869Z,9.38
2017-10-19T06:41:13.982Z,9.48
2017-10-19T06:42:13.962Z,9.58
2017-10-19T06:43:14.007Z,9.73
2017-10-19T06:44:14.054Z,9.78
2017-10-19T06:45:14.101Z,9.83
2017-10-19T06:46:14.210Z,10.09
2017-10-19T06:47:14.254Z,10.06
2017-10-19T06:48:14.237Z,10.21
2017-10-19T06:49:14.285Z,10.36
2017-10-19T06:50:14.328Z,10.58
2017-10-19T06:51:14.375Z,10.62
2017-10-19T06:52:14.490Z,10.68
2017-10-19T06:53:14.471Z,10.77
2017-10-19T06:54:14.515Z,11.01
2017-10-19T06:55:14.561Z,11.09
2017-10-19T06:56:14.608Z,11.21
2017-10-19T06:57:14.719Z,11.32
2017-10-19T06:58:14.702Z,11.61
2017-10-19T06:59:14.748Z,11.90
2017-10-19T07:00:14.796Z,12.29
2017-10-19T07:01:14.842Z,12.51
2017-10-19T07:02:14.951Z,12.78
2017-10-19T07:03:14.936Z,12.81
2017-10-19T07:04:14.987Z,13.02
2017-10-19T07:05:15.031Z,13.30
2017-10-19T07:06:15.077Z,13.84
2017-10-19T07:07:15.188Z,14.38
2017-10-19T07:08:15.172Z,14.90
2017-10-19T07:09:15.220Z,15.31
2017-10-19T07:10:15.269Z,15.67
2017-10-19T07:11:15.314Z,16.06
2017-10-19T07:12:15.424Z,16.56
2017-10-19T07:13:15.413Z,16.58
2017-10-19T07:14:15.464Z,16.03
2017-10-19T07:15:15.511Z,15.60
2017-10-19T07:16:15.562Z,15.85
2017-10-19T07:17:15.671Z,16.33
2017-10-19T07:18:15.651Z,16.67
2017-10-19T07:19:15.700Z,16.98
2017-10-19T07:20:15.752Z,16.95
2017-10-19T07:21:15.799Z,16.59
2017-10-19T07:22:15.910Z,15.57
2017-10-19T07:23:15.900Z,14.90
2017-10-19T07:24:15.947Z,14.38
2017-10-19T07:25:15.994Z,14.31
2017-10-19T07:26:16.047Z,14.37
2017-10-19T07:27:16.154Z,14.49
2017-10-19T07:28:16.140Z,14.21
2017-10-19T07:29:16.188Z,14.17
2017-10-19T07:30:16.235Z,14.52
2017-10-19T07:31:16.284Z,14.43
2017-10-19T07:32:16.397Z,14.42
2017-10-19T07:33:16.383Z,14.56
2017-10-19T07:34:16.430Z,15.36
2017-10-19T07:35:16.479Z,16.01
2017-10-19T07:36:16.529Z,16.56
2017-10-19T07:37:16.642Z,16.70
2017-10-19T07:38:16.627Z,17.08
2017-10-19T07:39:16.680Z,17.47
2017-10-19T07:40:16.728Z,18.03
2017-10-19T07:41:16.778Z,18.47
2017-10-19T07:42:16.908Z,18.17
2017-10-19T07:43:16.870Z,17.66
2017-10-19T07:44:17.546Z,17.00
2017-10-19T07:45:16.972Z,16.18
2017-10-19T07:46:17.022Z,15.70
2017-10-19T07:47:17.135Z,15.49
2017-10-19T07:48:17.181Z,15.11
2017-10-19T07:49:17.170Z,15.02
2017-10-19T07:50:17.219Z,14.88
2017-10-19T07:51:17.269Z,14.88
2017-10-19T07:52:17.317Z,14.34
2017-10-19T07:53:17.436Z,14.16
2017-10-19T07:54:17.419Z,13.88
2017-10-19T07:55:17.468Z,13.89
2017-10-19T07:56:17.518Z,13.99
2017-10-19T07:57:17.567Z,14.20
2017-10-19T07:58:17.685Z,15.30
2017-10-19T07:59:17.660Z,16.09
2017-10-19T08:00:17.715Z,17.07
2017-10-19T08:01:17.764Z,17.59
2017-10-19T08:02:17.811Z,17.92
2017-10-19T08:03:17.929Z,18.22
2017-10-19T08:04:17.912Z,17.40
2017-10-19T08:05:17.961Z,16.93
2017-10-19T08:06:18.012Z,16.59
2017-10-19T08:07:18.061Z,15.97
2017-10-19T08:08:18.181Z,15.54
2017-10-19T08:09:18.161Z,15.27
2017-10-19T08:10:18.215Z,15.01
2017-10-19T08:11:18.260Z,14.93
2017-10-19T08:12:18.309Z,14.87
2017-10-19T08:13:18.445Z,14.91
2017-10-19T08:14:18.411Z,16.04
2017-10-19T08:15:18.460Z,16.90
2017-10-19T08:16:18.510Z,17.51
2017-10-19T08:17:18.561Z,18.27
2017-10-19T08:18:18.685Z,18.34
2017-10-19T08:19:18.657Z,18.33
2017-10-19T08:20:18.707Z,18.25
2017-10-19T08:21:18.758Z,18.74
2017-10-19T08:22:18.810Z,18.57
2017-10-19T08:23:18.921Z,18.80
2017-10-19T08:24:18.980Z,19.29
2017-10-19T08:25:18.959Z,19.38
2017-10-19T08:26:19.005Z,19.25
2017-10-19T08:27:19.060Z,19.17
2017-10-19T08:28:19.112Z,18.83
2017-10-19T08:29:19.229Z,18.92
2017-10-19T08:30:19.217Z,19.33
2017-10-19T08:31:19.262Z,19.63
2017-10-19T08:32:19.332Z,19.91
2017-10-19T08:33:19.366Z,20.21
2017-10-19T08:34:19.482Z,20.49
2017-10-19T08:35:19.468Z,20.81
2017-10-19T08:36:20.057Z,20.79
2017-10-19T08:37:19.574Z,20.87
2017-10-19T08:38:19.624Z,21.01
2017-10-19T08:39:19.821Z,20.95
2017-10-19T08:40:19.730Z,19.84
2017-10-19T08:41:19.783Z,19.39
2017-10-19T08:42:19.834Z,18.54
2017-10-19T08:43:19.894Z,18.39
2017-10-19T08:44:20.024Z,18.36
2017-10-19T08:45:19.990Z,19.05
2017-10-19T08:46:20.044Z,19.21
2017-10-19T08:47:20.094Z,19.83
2017-10-19T08:48:20.149Z,19.65
2017-10-19T08:49:20.264Z,19.58
2017-10-19T08:50:20.319Z,19.32
2017-10-19T08:51:20.304Z,19.15
2017-10-19T08:52:20.357Z,18.72
2017-10-19T08:53:20.411Z,18.54
2017-10-19T08:54:20.461Z,18.18
2017-10-19T08:55:20.672Z,18.03
2017-10-19T08:56:20.567Z,17.88
2017-10-19T08:57:20.640Z,17.84
2017-10-19T08:58:20.671Z,17.78
2017-10-19T08:59:20.730Z,17.82
2017-10-19T09:00:20.919Z,17.85
2017-10-19T09:01:20.827Z,18.02
2017-10-19T09:02:20.879Z,17.88
2017-10-19T09:03:20.931Z,18.03
2017-10-19T09:04:20.988Z,18.03
2017-10-19T09:05:21.099Z,18.74
2017-10-19T09:06:21.086Z,19.33
2017-10-19T09:07:21.136Z,19.70
2017-10-19T09:08:21.189Z,20.20
2017-10-19T09:09:21.240Z,20.66
2017-10-19T09:10:21.372Z,20.81
2017-10-19T09:11:21.347Z,20.91
2017-10-19T09:12:21.412Z,21.02
2017-10-19T09:13:21.450Z,21.01
2017-10-19T09:14:21.503Z,21.17
2017-10-19T09:15:21.621Z,21.32
2017-10-19T09:16:21.614Z,21.24
2017-10-19T09:17:21.658Z,21.14
2017-10-19T09:18:21.715Z,21.19
2017-10-19T09:19:21.768Z,20.98
2017-10-19T09:20:21.886Z,20.93
2017-10-19T09:21:21.938Z,20.86
2017-10-19T09:22:21.929Z,20.80
2017-10-19T09:23:21.984Z,20.81
2017-10-19T09:24:22.038Z,20.91
2017-10-19T09:25:22.093Z,21.30
2017-10-19T09:26:22.211Z,21.51
2017-10-19T09:27:22.202Z,21.76
2017-10-19T09:28:22.257Z,21.76
2017-10-19T09:29:22.311Z,22.07
2017-10-19T09:30:22.366Z,22.12
2017-10-19T09:31:22.484Z,22.10
2017-10-19T09:32:22.476Z,21.71
2017-10-19T09:33:22.531Z,21.53
2017-10-19T09:34:22.584Z,21.83
2017-10-19T09:35:22.645Z,21.74
2017-10-19T09:36:22.769Z,21.72
2017-10-19T09:37:22.754Z,20.81
2017-10-19T09:38:22.809Z,20.49
2017-10-19T09:39:22.863Z,20.28
2017-10-19T09:40:22.920Z,19.58
2017-10-19T09:41:23.044Z,19.25
2017-10-19T09:42:23.030Z,18.74
2017-10-19T09:43:23.087Z,18.80
2017-10-19T09:44:23.139Z,19.15
2017-10-19T09:45:23.202Z,19.53
2017-10-19T09:46:23.325Z,19.38
2017-10-19T09:47:23.306Z,19.21
2017-10-19T09:48:23.360Z,19.23
2017-10-19T09:49:23.412Z,19.48
2017-10-19T09:50:23.466Z,19.84
2017-10-19T09:51:23.596Z,20.05
2017-10-19T09:52:23.576Z,20.09
2017-10-19T09:53:23.631Z,20.10
2017-10-19T09:54:23.683Z,19.91
2017-10-19T09:55:23.740Z,19.36
2017-10-19T09:56:23.858Z,19.06
2017-10-19T09:57:23.910Z,18.77
2017-10-19T09:58:23.901Z,18.17
2017-10-19T09:59:23.956Z,18.24
2017-10-19T10:00:24.005Z,18.62
2017-10-19T10:01:24.063Z,18.98
2017-10-19T10:02:24.180Z,19.06
2017-10-19T10:03:24.174Z,19.05
2017-10-19T10:04:24.224Z,19.08
2017-10-19T10:05:24.278Z,19.31
2017-10-19T10:06:24.330Z,18.91
2017-10-19T10:07:24.448Z,18.91
2017-10-19T10:08:24.440Z,18.84
2017-10-19T10:09:24.501Z,18.90
2017-10-19T10:10:24.546Z,18.84
2017-10-19T10:11:24.603Z,19.20
2017-10-19T10:12:24.722Z,19.51
2017-10-19T10:13:24.710Z,20.18
2017-10-19T10:14:24.764Z,20.28
2017-10-19T10:15:24.817Z,20.21
2017-10-19T10:16:24.868Z,20.33
2017-10-19T10:17:24.992Z,20.34
2017-10-19T10:18:24.980Z,20.62
2017-10-19T10:19:25.035Z,20.83
2017-10-19T10:20:25.090Z,20.96
2017-10-19T10:21:25.144Z,21.14
2017-10-19T10:22:25.263Z,21.23
2017-10-19T10:23:25.256Z,21.46
2017-10-19T10:24:25.310Z,20.89
2017-10-19T10:25:25.365Z,20.24
2017-10-19T10:26:25.420Z,19.98
2017-10-19T10:27:25.538Z,19.68
2017-10-19T10:28:25.532Z,19.87
2017-10-19T10:29:25.589Z,20.28
2017-10-19T10:30:25.647Z,20.65
2017-10-19T10:31:25.696Z,20.96
2017-10-19T10:32:25.817Z,21.17
2017-10-19T10:33:25.809Z,21.63
2017-10-19T10:34:25.863Z,21.46
2017-10-19T10:35:25.917Z,21.59
2017-10-19T10:36:25.974Z,21.79
2017-10-19T10:37:26.188Z,21.79
2017-10-19T10:38:26.089Z,21.59
2017-10-19T10:39:26.141Z,21.05
2017-10-19T10:40:26.199Z,20.66
2017-10-19T10:41:26.253Z,20.49
2017-10-19T10:42:26.389Z,20.23
2017-10-19T10:43:26.370Z,20.03
2017-10-19T10:44:26.417Z,19.97
2017-10-19T10:45:26.476Z,19.70
2017-10-19T10:46:26.534Z,19.86
2017-10-19T10:47:26.668Z,19.94
2017-10-19T10:48:26.648Z,20.10
2017-10-19T10:49:26.698Z,19.43
2017-10-19T10:50:26.752Z,19.32
2017-10-19T10:51:26.813Z,19.39
2017-10-19T10:52:26.928Z,18.86
2017-10-19T10:53:26.983Z,19.01
2017-10-19T10:54:26.973Z,18.76
2017-10-19T10:55:27.029Z,18.67
2017-10-19T10:56:27.083Z,18.90
2017-10-19T10:57:27.138Z,19.20
2017-10-19T10:58:27.259Z,19.31
2017-10-19T10:59:27.247Z,19.48
2017-10-19T11:00:27.301Z,19.10
2017-10-19T11:01:27.359Z,19.58
2017-10-19T11:02:27.411Z,19.43
2017-10-19T11:03:27.557Z,19.43
2017-10-19T11:04:27.520Z,19.70
2017-10-19T11:05:27.578Z,19.97
2017-10-19T11:06:27.637Z,19.97
2017-10-19T11:07:27.690Z,20.31
2017-10-19T11:08:27.805Z,20.28
2017-10-19T11:09:27.796Z,19.88
2017-10-19T11:10:27.851Z,19.75
2017-10-19T11:11:27.905Z,19.97
2017-10-19T11:12:28.021Z,19.68
2017-10-19T11:13:28.075Z,19.72
2017-10-19T11:14:28.066Z,18.97
2017-10-19T11:15:28.121Z,18.95
2017-10-19T11:16:28.178Z,19.61
2017-10-19T11:17:28.233Z,19.91
2017-10-19T11:18:28.355Z,20.06
2017-10-19T11:19:28.339Z,19.86
2017-10-19T11:20:28.394Z,19.02
2017-10-19T11:21:28.449Z,18.80
2017-10-19T11:22:28.506Z,18.46
2017-10-19T11:23:28.640Z,18.31
2017-10-19T11:24:28.612Z,18.33
2017-10-19T11:25:28.670Z,18.22
2017-10-19T11:26:28.728Z,18.03
2017-10-19T11:27:28.777Z,18.04
2017-10-19T11:28:28.895Z,18.15
2017-10-19T11:29:28.953Z,18.34
2017-10-19T11:30:28.937Z,18.29
2017-10-19T11:31:28.993Z,18.22
2017-10-19T11:32:29.047Z,18.36
2017-10-19T11:33:29.107Z,17.81
2017-10-19T11:34:29.241Z,17.82
2017-10-19T11:35:29.210Z,17.67
2017-10-19T11:36:29.263Z,17.30
2017-10-19T11:37:29.315Z,17.00
2017-10-19T11:38:29.370Z,17.14
2017-10-19T11:39:29.506Z,17.28
2017-10-19T11:40:29.481Z,17.14
2017-10-19T11:41:29.531Z,17.29
2017-10-19T11:42:29.583Z,17.87
2017-10-19T11:43:29.636Z,18.40
2017-10-19T11:44:29.767Z,18.65
2017-10-19T11:45:29.742Z,18.92
2017-10-19T11:46:29.793Z,18.98
2017-10-19T11:47:29.847Z,18.92
2017-10-19T11:48:29.900Z,18.72
2017-10-19T11:49:30.038Z,18.64
2017-10-19T11:50:30.007Z,18.76
2017-10-19T11:51:30.058Z,18.80
2017-10-19T11:52:30.113Z,18.64
2017-10-19T11:53:30.168Z,18.36
2017-10-19T11:54:30.300Z,18.06
2017-10-19T11:55:30.274Z,17.91
2017-10-19T11:56:30.327Z,18.00
2017-10-19T11:57:30.384Z,18.06
2017-10-19T11:58:30.431Z,17.85
2017-10-19T11:59:30.687Z,17.71
2017-10-19T12:00:30.545Z,17.84
2017-10-19T12:01:30.611Z,17.99
2017-10-19T12:02:30.646Z,18.13
2017-10-19T12:03:30.704Z,18.54
2017-10-19T12:04:30.844Z,18.72
2017-10-19T12:05:30.811Z,18.97
2017-10-19T12:06:30.862Z,18.80
2017-10-19T12:07:30.918Z,18.61
2017-10-19T12:08:30.966Z,18.76
2017-10-19T12:09:31.103Z,18.97
2017-10-19T12:10:31.081Z,18.98
2017-10-19T12:11:31.138Z,19.02
2017-10-19T12:12:31.185Z,19.23
2017-10-19T12:13:31.239Z,19.38
2017-10-19T12:14:31.377Z,19.35
2017-10-19T12:15:31.352Z,19.39
2017-10-19T12:16:31.404Z,19.23
2017-10-19T12:17:31.459Z,18.91
2017-10-19T12:18:31.515Z,19.02
2017-10-19T12:19:31.646Z,18.83
2017-10-19T12:20:31.619Z,18.84
2017-10-19T12:21:31.674Z,18.79
2017-10-19T12:22:31.729Z,18.84
2017-10-19T12:23:31.783Z,18.64
2017-10-19T12:24:31.902Z,18.65
2017-10-19T12:25:31.958Z,18.55
2017-10-19T12:26:31.947Z,18.74
2017-10-19T12:27:31.999Z,18.99
2017-10-19T12:28:32.056Z,18.97
2017-10-19T12:29:32.111Z,19.29
2017-10-19T12:30:32.235Z,19.36
2017-10-19T12:31:32.220Z,19.11
2017-10-19T12:32:32.275Z,19.08
2017-10-19T12:33:32.327Z,18.79
2017-10-19T12:34:32.383Z,19.15
2017-10-19T12:35:32.508Z,19.42
2017-10-19T12:36:32.493Z,19.58
2017-10-19T12:37:32.551Z,19.51
2017-10-19T12:38:32.608Z,19.69
2017-10-19T12:39:32.660Z,19.86
2017-10-19T12:40:32.786Z,20.06
2017-10-19T12:41:32.772Z,20.03
2017-10-19T12:42:32.823Z,19.53
2017-10-19T12:43:32.882Z,19.68
2017-10-19T12:44:32.938Z,19.58
2017-10-19T12:45:33.062Z,19.32
2017-10-19T12:46:33.054Z,19.10
2017-10-19T12:47:33.102Z,19.13
2017-10-19T12:48:33.157Z,19.08
2017-10-19T12:49:33.220Z,19.13
2017-10-19T12:50:33.332Z,19.14
2017-10-19T12:51:33.323Z,19.18
2017-10-19T12:52:33.378Z,19.33
2017-10-19T12:53:33.430Z,19.15
2017-10-19T12:54:33.482Z,18.83
2017-10-19T12:55:33.603Z,18.64
2017-10-19T12:56:33.591Z,18.73
2017-10-19T12:57:33.643Z,18.55
2017-10-19T12:58:33.696Z,18.19
2017-10-19T12:59:33.749Z,18.17
2017-10-19T13:00:33.866Z,18.00
2017-10-19T13:01:33.857Z,17.84
2017-10-19T13:02:33.906Z,17.94
2017-10-19T13:03:33.963Z,18.27
2017-10-19T13:04:34.012Z,18.15
2017-10-19T13:05:34.128Z,18.13